Pioneer Third — DUIX — position and weather

sailwx.info

Track history (hours):
 
Tides and Currents Weather Stations Pressure Air Temp Water Temp Dewpoint Dewpoint Depression Visibility Wind Speed Wind Dir Waves Ship Positions

Pioneer Third

Last reported at 2018-Jan-25 22:03 UTC. Time now 2018-Feb-20 13:22 UTC.
Position N 01°15' E 104°01'.
Warning: this ship's position is 25 days out of date.

Length 111 m; draft 7.7 m.

Type: Ship. MMSI: 548956000.

Date/timePositionNaut miles runAvg speedWind from/ knotsBaromVisibWave heightAir tempDewpointWater temp
2018-Jan-25 22:03N 01°15' E 104°01'111.8
2018-Jan-25 21:59N 01°14' E 104°00'611.5
2018-Jan-25 21:28N 01°12' E 103°55'611.3
2018-Jan-25 20:59N 01°10' E 103°50'511.1
2018-Jan-25 20:30N 01°07' E 103°45'611.1
2018-Jan-25 20:00N 01°04' E 103°41'610.8
2018-Jan-25 19:29N 01°05' E 103°35'712.8
2018-Jan-25 18:59N 01°08' E 103°30'612.3
2018-Jan-25 18:29N 01°11' E 103°25'  
2018-Jan-21 10:54N 01°37' E 102°59'2815.0
2018-Jan-21 09:03N 01°19' E 103°20'214.4
2018-Jan-21 08:55N 01°18' E 103°21'614.0
2018-Jan-21 08:30N 01°14' E 103°26'713.8
2018-Jan-21 07:59N 01°12' E 103°33'613.1
2018-Jan-21 07:30N 01°11' E 103°39'612.0
2018-Jan-21 06:59N 01°08' E 103°45'612.9
2018-Jan-21 06:30N 01°11' E 103°50'4 8.3
2018-Jan-21 06:00N 01°13' E 103°54'3 1.8
2018-Jan-21 04:27N 01°16' E 103°53'0 0.0
2018-Jan-21 02:27N 01°16' E 103°53'0 0.0
2018-Jan-21 01:57N 01°16' E 103°53'0 0.0
2018-Jan-21 01:30N 01°16' E 103°53'0 0.0
2018-Jan-21 00:30N 01°16' E 103°53'0 0.1
2018-Jan-20 23:39N 01°16' E 103°53'0 0.2
2018-Jan-20 23:24N 01°16' E 103°53'0 0.0
2018-Jan-20 22:48N 01°16' E 103°53'0 0.0
2018-Jan-20 22:18N 01°16' E 103°53'0 0.0
2018-Jan-20 20:48N 01°16' E 103°53'0 0.0
2018-Jan-20 20:27N 01°16' E 103°53'0 0.0
2018-Jan-20 19:42N 01°16' E 103°53'0 0.0
2018-Jan-20 19:30N 01°16' E 103°53'0 0.0
2018-Jan-20 18:18N 01°16' E 103°53'0 0.0
2018-Jan-20 17:58N 01°16' E 103°53'1 1.2
2018-Jan-20 17:27N 01°16' E 103°53'3 5.7
2018-Jan-20 16:59N 01°14' E 103°55'3 5.1
2018-Jan-20 16:28N 01°15' E 103°57'  
2018-Jan-18 04:51S 06°44' E 112°43'513.3
2018-Jan-18 04:28S 06°49' E 112°45'711.1
2018-Jan-18 03:53S 06°55' E 112°44'512.5
2018-Jan-18 03:29S 06°60' E 112°42'713.4
2018-Jan-18 02:55S 07°07' E 112°39'  
Track history (hours):
 
Tides and Currents Weather Stations Pressure Air Temp Water Temp Dewpoint Dewpoint Depression Visibility Wind Speed Wind Dir Waves Ship Positions

Pioneer Third

Last reported at 2018-Jan-25 22:03 UTC. Time now 2018-Feb-20 13:22 UTC.
Position N 01°15' E 104°01'.
Warning: this ship's position is 25 days out of date.

Length 111 m; draft 7.7 m.

Type: Ship. MMSI: 548956000.

Date/timePositionNaut miles runAvg speedWind from/ knotsBaromVisibWave heightAir tempDewpointWater temp
2018-Jan-25 22:03N 01°15' E 104°01'111.8
2018-Jan-25 21:59N 01°14' E 104°00'611.5
2018-Jan-25 21:28N 01°12' E 103°55'611.3
2018-Jan-25 20:59N 01°10' E 103°50'511.1
2018-Jan-25 20:30N 01°07' E 103°45'611.1
2018-Jan-25 20:00N 01°04' E 103°41'610.8
2018-Jan-25 19:29N 01°05' E 103°35'712.8
2018-Jan-25 18:59N 01°08' E 103°30'612.3
2018-Jan-25 18:29N 01°11' E 103°25'  
2018-Jan-21 10:54N 01°37' E 102°59'2815.0
2018-Jan-21 09:03N 01°19' E 103°20'214.4
2018-Jan-21 08:55N 01°18' E 103°21'614.0
2018-Jan-21 08:30N 01°14' E 103°26'713.8
2018-Jan-21 07:59N 01°12' E 103°33'613.1
2018-Jan-21 07:30N 01°11' E 103°39'612.0
2018-Jan-21 06:59N 01°08' E 103°45'612.9
2018-Jan-21 06:30N 01°11' E 103°50'4 8.3
2018-Jan-21 06:00N 01°13' E 103°54'3 1.8
2018-Jan-21 04:27N 01°16' E 103°53'0 0.0
2018-Jan-21 02:27N 01°16' E 103°53'0 0.0
2018-Jan-21 01:57N 01°16' E 103°53'0 0.0
2018-Jan-21 01:30N 01°16' E 103°53'0 0.0
2018-Jan-21 00:30N 01°16' E 103°53'0 0.1
2018-Jan-20 23:39N 01°16' E 103°53'0 0.2
2018-Jan-20 23:24N 01°16' E 103°53'0 0.0
2018-Jan-20 22:48N 01°16' E 103°53'0 0.0
2018-Jan-20 22:18N 01°16' E 103°53'0 0.0
2018-Jan-20 20:48N 01°16' E 103°53'0 0.0
2018-Jan-20 20:27N 01°16' E 103°53'0 0.0
2018-Jan-20 19:42N 01°16' E 103°53'0 0.0
2018-Jan-20 19:30N 01°16' E 103°53'0 0.0
2018-Jan-20 18:18N 01°16' E 103°53'0 0.0
2018-Jan-20 17:58N 01°16' E 103°53'1 1.2
2018-Jan-20 17:27N 01°16' E 103°53'3 5.7
2018-Jan-20 16:59N 01°14' E 103°55'3 5.1
2018-Jan-20 16:28N 01°15' E 103°57'  
2018-Jan-18 04:51S 06°44' E 112°43'513.3
2018-Jan-18 04:28S 06°49' E 112°45'711.1
2018-Jan-18 03:53S 06°55' E 112°44'512.5
2018-Jan-18 03:29S 06°60' E 112°42'713.4
2018-Jan-18 02:55S 07°07' E 112°39'  

Dump ship's entire track history